createdAt,value
2018-08-25T00:01:49.708Z,43.85
2018-08-25T00:04:16.043Z,43.90
2018-08-25T00:06:42.495Z,44.02
2018-08-25T00:09:08.830Z,43.95
2018-08-25T00:11:35.155Z,43.93
2018-08-25T00:14:01.502Z,43.67
2018-08-25T00:16:27.920Z,43.87
2018-08-25T00:18:54.252Z,43.91
2018-08-25T00:21:20.594Z,43.95
2018-08-25T00:23:46.960Z,43.85
2018-08-25T00:26:13.304Z,43.97
2018-08-25T00:28:39.635Z,44.01
2018-08-25T00:31:06.011Z,43.99
2018-08-25T00:33:32.335Z,44.17
2018-08-25T00:35:58.654Z,43.99
2018-08-25T00:38:25.001Z,44.13
2018-08-25T00:40:51.467Z,44.10
2018-08-25T00:43:17.868Z,44.08
2018-08-25T00:45:44.248Z,44.20
2018-08-25T00:48:10.679Z,44.04
2018-08-25T00:50:37.036Z,44.09
2018-08-25T00:53:03.364Z,44.17
2018-08-25T00:55:29.723Z,44.25
2018-08-25T00:57:56.051Z,44.33
2018-08-25T01:00:22.383Z,44.23
2018-08-25T01:02:48.715Z,44.22
2018-08-25T01:05:15.047Z,44.27
2018-08-25T01:07:41.407Z,44.36
2018-08-25T01:10:07.738Z,44.44
2018-08-25T01:12:34.171Z,44.34
2018-08-25T01:15:00.519Z,44.56
2018-08-25T01:17:26.936Z,44.58
2018-08-25T01:19:53.331Z,44.62
2018-08-25T01:22:19.657Z,44.73
2018-08-25T01:24:46.024Z,44.62
2018-08-25T01:27:12.457Z,44.74
2018-08-25T01:29:38.796Z,44.75
2018-08-25T01:32:05.119Z,44.94
2018-08-25T01:34:31.450Z,44.86
2018-08-25T01:36:57.823Z,45.03
2018-08-25T01:39:24.189Z,45.07
2018-08-25T01:41:50.553Z,45.01
2018-08-25T01:44:16.882Z,45.04
2018-08-25T01:46:43.278Z,45.06
2018-08-25T01:49:09.648Z,45.17
2018-08-25T01:51:35.981Z,45.34
2018-08-25T01:54:02.418Z,45.33
2018-08-25T01:56:28.756Z,45.41
2018-08-25T01:58:55.169Z,45.47
2018-08-25T02:01:21.592Z,45.54
2018-08-25T02:03:47.962Z,45.50
2018-08-25T02:06:14.340Z,45.54
2018-08-25T02:08:40.697Z,45.69
2018-08-25T02:11:07.131Z,45.79
2018-08-25T02:13:33.457Z,45.76
2018-08-25T02:15:59.809Z,45.89
2018-08-25T02:18:26.213Z,45.89
2018-08-25T02:20:52.556Z,45.82
2018-08-25T02:23:18.898Z,45.92
2018-08-25T02:25:45.377Z,46.10
2018-08-25T02:28:11.790Z,46.14
2018-08-25T02:30:38.102Z,46.14
2018-08-25T02:33:04.425Z,46.24
2018-08-25T02:35:30.742Z,46.31
2018-08-25T02:37:57.110Z,46.28
2018-08-25T02:40:23.454Z,46.36
2018-08-25T02:42:49.795Z,46.44
2018-08-25T02:45:16.155Z,46.36
2018-08-25T02:47:42.536Z,46.37
2018-08-25T02:50:08.859Z,46.47
2018-08-25T02:52:35.188Z,46.44
2018-08-25T02:55:01.534Z,46.52
2018-08-25T02:57:27.873Z,46.55
2018-08-25T02:59:54.203Z,46.55
2018-08-25T03:02:20.530Z,46.54
2018-08-25T03:04:46.930Z,46.73
2018-08-25T03:07:13.256Z,46.69
2018-08-25T03:09:39.583Z,46.60
2018-08-25T03:12:05.913Z,46.76
2018-08-25T03:14:32.256Z,46.86
2018-08-25T03:16:58.615Z,46.81
2018-08-25T03:19:24.948Z,46.83
2018-08-25T03:21:51.314Z,46.94
2018-08-25T03:24:17.645Z,47.02
2018-08-25T03:26:44.032Z,47.10
2018-08-25T03:29:10.410Z,47.15
2018-08-25T03:31:36.745Z,47.16
2018-08-25T03:34:03.168Z,47.36
2018-08-25T03:36:29.497Z,47.30
2018-08-25T03:38:55.827Z,47.42
2018-08-25T03:41:22.153Z,47.49
2018-08-25T03:43:48.536Z,47.51
2018-08-25T03:46:14.861Z,47.19
2018-08-25T03:48:41.193Z,47.14
2018-08-25T03:51:07.552Z,47.14
2018-08-25T03:53:33.878Z,46.99
2018-08-25T03:56:00.207Z,47.10
2018-08-25T03:58:26.610Z,47.26
2018-08-25T04:00:52.942Z,47.22
2018-08-25T04:03:19.292Z,47.40
2018-08-25T04:05:45.643Z,47.54
2018-08-25T04:08:12.031Z,47.59
2018-08-25T04:10:38.400Z,47.69
2018-08-25T04:13:04.738Z,47.76
2018-08-25T04:15:31.055Z,47.87
2018-08-25T04:17:57.454Z,47.70
2018-08-25T04:20:23.768Z,47.78
2018-08-25T04:22:50.092Z,47.83
2018-08-25T04:25:16.449Z,47.83
2018-08-25T04:27:42.821Z,47.78
2018-08-25T04:30:09.154Z,48.22
2018-08-25T04:32:35.482Z,47.90
2018-08-25T04:35:01.822Z,47.97
2018-08-25T04:37:28.138Z,48.04
2018-08-25T04:39:54.458Z,48.08
2018-08-25T04:42:20.796Z,48.09
2018-08-25T04:44:47.127Z,48.20
2018-08-25T04:47:13.493Z,48.22
2018-08-25T04:49:39.829Z,48.19
2018-08-25T04:52:06.155Z,48.28
2018-08-25T04:54:32.487Z,48.19
2018-08-25T04:56:58.825Z,48.16
2018-08-25T04:59:25.161Z,48.08
2018-08-25T05:01:51.573Z,48.20
2018-08-25T05:04:17.900Z,48.06
2018-08-25T05:06:44.228Z,48.00
2018-08-25T05:09:10.547Z,48.05
2018-08-25T05:11:36.868Z,48.01
2018-08-25T05:14:03.200Z,48.05
2018-08-25T05:16:29.528Z,48.17
2018-08-25T05:18:55.864Z,48.14
2018-08-25T05:21:22.198Z,48.14
2018-08-25T05:23:48.549Z,48.17
2018-08-25T05:26:14.895Z,48.24
2018-08-25T05:28:41.250Z,48.26
2018-08-25T05:31:07.616Z,48.17
2018-08-25T05:33:33.987Z,48.19
2018-08-25T05:36:00.343Z,48.28
2018-08-25T05:38:26.676Z,48.17
2018-08-25T05:40:53.036Z,48.23
2018-08-25T05:43:19.503Z,48.18
2018-08-25T05:45:45.859Z,48.15
2018-08-25T05:48:12.234Z,48.15
2018-08-25T05:50:38.564Z,48.11
2018-08-25T05:53:04.899Z,48.01
2018-08-25T05:55:31.268Z,48.08
2018-08-25T05:57:57.608Z,48.10
2018-08-25T06:00:23.948Z,48.02
2018-08-25T06:02:50.287Z,48.07
2018-08-25T06:05:16.608Z,48.02
2018-08-25T06:07:42.941Z,48.09
2018-08-25T06:10:09.350Z,48.09
2018-08-25T06:12:35.705Z,48.06
2018-08-25T06:15:02.143Z,48.10
2018-08-25T06:17:28.482Z,48.11
2018-08-25T06:19:54.814Z,48.19
2018-08-25T06:22:21.193Z,48.17
2018-08-25T06:24:47.595Z,48.24
2018-08-25T06:27:13.939Z,48.23
2018-08-25T06:29:40.327Z,48.25
2018-08-25T06:32:06.673Z,48.32
2018-08-25T06:34:33.048Z,48.34
2018-08-25T06:36:59.394Z,48.35
2018-08-25T06:39:25.730Z,48.36
2018-08-25T06:41:52.137Z,48.35
2018-08-25T06:44:18.477Z,48.40
2018-08-25T06:46:44.845Z,48.39
2018-08-25T06:49:11.176Z,48.37
2018-08-25T06:51:37.516Z,48.50
2018-08-25T06:56:36.501Z,48.47
2018-08-25T06:59:02.847Z,48.53
2018-08-25T07:01:29.192Z,48.48
2018-08-25T07:03:55.677Z,48.43
2018-08-25T07:06:22.046Z,48.48
2018-08-25T07:08:48.394Z,48.48
2018-08-25T07:11:14.723Z,48.54
2018-08-25T07:13:41.128Z,48.60
2018-08-25T07:16:07.492Z,48.57
2018-08-25T07:18:33.855Z,48.54
2018-08-25T07:21:00.182Z,48.54
2018-08-25T07:23:26.506Z,48.49
2018-08-25T07:25:52.893Z,48.51
2018-08-25T07:28:19.230Z,48.47
2018-08-25T07:30:45.625Z,48.56
2018-08-25T07:33:11.954Z,48.43
2018-08-25T07:35:38.285Z,48.28
2018-08-25T07:38:04.642Z,48.38
2018-08-25T07:40:30.993Z,48.48
2018-08-25T07:42:57.325Z,48.46
2018-08-25T07:45:23.747Z,48.47
2018-08-25T07:47:50.011Z,48.44
2018-08-25T07:50:16.314Z,48.41
2018-08-25T07:52:42.658Z,48.47
2018-08-25T07:55:09.001Z,48.41
2018-08-25T07:57:35.378Z,48.54
2018-08-25T08:00:01.711Z,48.43
2018-08-25T08:02:28.073Z,48.53
2018-08-25T08:04:54.456Z,48.58
2018-08-25T08:07:20.787Z,48.50
2018-08-25T08:09:47.168Z,48.55
2018-08-25T08:12:13.524Z,48.56
2018-08-25T08:14:39.853Z,48.66
2018-08-25T08:17:06.215Z,48.66
2018-08-25T08:19:32.557Z,48.64
2018-08-25T08:21:58.920Z,48.71
2018-08-25T08:24:25.260Z,48.69
2018-08-25T08:26:51.620Z,48.71
2018-08-25T08:29:17.954Z,48.73
2018-08-25T08:31:44.334Z,48.86
2018-08-25T08:34:10.690Z,48.87
2018-08-25T08:36:37.049Z,48.92
2018-08-25T08:39:03.391Z,48.82
2018-08-25T08:41:29.772Z,48.89
2018-08-25T08:43:56.167Z,48.94
2018-08-25T08:46:22.479Z,48.97
2018-08-25T08:48:48.816Z,49.07
2018-08-25T08:51:15.140Z,48.93
2018-08-25T08:53:41.480Z,48.95
2018-08-25T08:56:07.819Z,48.98
2018-08-25T08:58:34.164Z,48.93
2018-08-25T09:01:00.532Z,48.99
2018-08-25T09:03:27.041Z,48.97
2018-08-25T09:05:53.338Z,49.06
2018-08-25T09:08:19.725Z,49.05
2018-08-25T09:10:46.054Z,49.13
2018-08-25T09:13:12.426Z,49.13
2018-08-25T09:15:38.786Z,49.09
2018-08-25T09:18:05.132Z,49.13
2018-08-25T09:20:31.587Z,49.08
2018-08-25T09:22:57.944Z,48.99
2018-08-25T09:25:24.281Z,48.93
2018-08-25T09:27:50.614Z,49.02
2018-08-25T09:30:17.281Z,48.95
2018-08-25T09:32:43.648Z,49.06
2018-08-25T09:35:10.045Z,49.08
2018-08-25T09:37:36.387Z,48.98
2018-08-25T09:40:02.766Z,48.97
2018-08-25T09:42:29.099Z,48.96
2018-08-25T09:44:55.471Z,49.18
2018-08-25T09:47:21.857Z,49.08
2018-08-25T09:49:48.191Z,49.13
2018-08-25T09:52:14.599Z,49.07
2018-08-25T09:54:40.995Z,49.11
2018-08-25T09:57:07.327Z,49.06
2018-08-25T09:59:33.688Z,49.19
2018-08-25T10:02:00.052Z,49.07
2018-08-25T10:04:26.388Z,49.07
2018-08-25T10:06:52.868Z,49.10
2018-08-25T10:09:19.236Z,49.15
2018-08-25T10:11:45.575Z,49.00
2018-08-25T10:14:11.949Z,48.99
2018-08-25T10:16:38.366Z,49.00
2018-08-25T10:19:04.720Z,48.97
2018-08-25T10:21:31.055Z,48.98
2018-08-25T10:23:57.411Z,49.07
2018-08-25T10:26:23.814Z,48.89
2018-08-25T10:28:50.169Z,48.86
2018-08-25T10:31:16.505Z,48.93
2018-08-25T10:33:42.859Z,48.80
2018-08-25T10:36:09.185Z,48.77
2018-08-25T10:38:35.565Z,48.79
2018-08-25T10:41:01.912Z,48.71
2018-08-25T10:43:28.287Z,48.81
2018-08-25T10:45:54.705Z,48.68
2018-08-25T10:48:21.070Z,48.77
2018-08-25T10:50:47.443Z,48.82
2018-08-25T10:53:13.764Z,48.71
2018-08-25T10:55:40.136Z,48.65
2018-08-25T10:58:06.486Z,48.71
2018-08-25T11:00:32.874Z,48.69
2018-08-25T11:02:59.235Z,48.71
2018-08-25T11:05:25.629Z,48.63
2018-08-25T11:07:51.972Z,48.61
2018-08-25T11:10:18.413Z,48.57
2018-08-25T11:12:44.804Z,48.44
2018-08-25T11:15:11.139Z,48.47
2018-08-25T11:17:37.519Z,48.51
2018-08-25T11:20:03.886Z,48.50
2018-08-25T11:22:30.222Z,48.60
2018-08-25T11:24:56.611Z,48.43
2018-08-25T11:27:22.946Z,48.46
2018-08-25T11:29:49.341Z,48.45
2018-08-25T11:32:15.704Z,48.42
2018-08-25T11:34:42.089Z,48.45
2018-08-25T11:37:08.482Z,48.50
2018-08-25T11:39:34.798Z,48.42
2018-08-25T11:42:01.125Z,48.48
2018-08-25T11:44:27.531Z,48.53
2018-08-25T11:46:53.881Z,48.37
2018-08-25T11:49:20.431Z,48.38
2018-08-25T11:51:46.792Z,48.36
2018-08-25T11:54:13.167Z,48.50
2018-08-25T11:56:39.549Z,48.35
2018-08-25T11:59:05.887Z,48.64
2018-08-25T12:01:32.384Z,48.41
2018-08-25T12:03:58.791Z,48.49
2018-08-25T12:06:25.159Z,48.40
2018-08-25T12:08:51.482Z,48.44
2018-08-25T12:11:17.858Z,48.41
2018-08-25T12:13:44.169Z,48.42
2018-08-25T12:16:10.588Z,48.48
2018-08-25T12:18:36.914Z,48.44
2018-08-25T12:21:03.278Z,48.41
2018-08-25T12:23:29.676Z,48.46
2018-08-25T12:25:56.106Z,48.46
2018-08-25T12:28:22.591Z,48.42
2018-08-25T12:30:48.989Z,48.40
2018-08-25T12:33:15.368Z,48.38
2018-08-25T12:35:41.838Z,48.47
2018-08-25T12:38:08.193Z,48.36
2018-08-25T12:40:34.603Z,48.36
2018-08-25T12:43:00.994Z,48.36
2018-08-25T12:45:27.331Z,48.64
2018-08-25T12:47:53.788Z,48.38
2018-08-25T12:50:20.181Z,48.32
2018-08-25T12:52:46.552Z,48.43
2018-08-25T12:55:13.016Z,48.36
2018-08-25T12:57:39.416Z,48.41
2018-08-25T13:00:05.779Z,48.37
2018-08-25T13:02:32.194Z,48.44
2018-08-25T13:04:58.516Z,48.43
2018-08-25T13:07:24.938Z,48.48
2018-08-25T13:09:51.223Z,48.44
2018-08-25T13:12:17.592Z,48.57
2018-08-25T13:14:44.071Z,48.63
2018-08-25T13:17:10.412Z,48.62
2018-08-25T13:19:36.748Z,48.66
2018-08-25T13:22:03.334Z,48.64
2018-08-25T13:24:29.614Z,48.71
2018-08-25T13:26:55.964Z,48.60
2018-08-25T13:29:22.342Z,48.62
2018-08-25T13:31:48.674Z,48.65
2018-08-25T13:34:15.168Z,48.76
2018-08-25T13:36:41.572Z,49.02
2018-08-25T13:39:07.987Z,48.79
2018-08-25T13:41:34.360Z,48.86
2018-08-25T13:44:00.746Z,48.92
2018-08-25T13:46:27.280Z,48.83
2018-08-25T13:48:53.631Z,48.79
2018-08-25T13:51:19.979Z,48.87
2018-08-25T13:53:46.363Z,48.84
2018-08-25T13:56:12.692Z,49.00
2018-08-25T13:58:39.084Z,48.77
2018-08-25T14:01:05.425Z,48.88
2018-08-25T14:03:31.789Z,48.77
2018-08-25T14:05:58.128Z,48.78
2018-08-25T14:08:24.665Z,48.85
2018-08-25T14:10:50.906Z,48.72
2018-08-25T14:13:17.287Z,48.76
2018-08-25T14:15:43.617Z,48.78
2018-08-25T14:18:09.975Z,48.76
2018-08-25T14:20:36.306Z,48.75
2018-08-25T14:23:02.667Z,48.71
2018-08-25T14:25:29.044Z,48.83
2018-08-25T14:27:55.375Z,49.03
2018-08-25T14:30:21.751Z,48.92
2018-08-25T14:32:48.082Z,48.85
2018-08-25T14:35:14.500Z,48.94
2018-08-25T14:37:40.869Z,48.93
2018-08-25T14:40:07.255Z,48.93
2018-08-25T14:42:33.625Z,48.92
2018-08-25T14:44:59.955Z,48.88
2018-08-25T14:47:26.277Z,48.88
2018-08-25T14:49:52.607Z,48.83
2018-08-25T14:52:18.949Z,48.89
2018-08-25T14:54:45.318Z,49.06
2018-08-25T14:57:12.602Z,48.94
2018-08-25T14:59:38.927Z,48.94
2018-08-25T15:02:05.300Z,48.92
2018-08-25T15:04:31.639Z,49.00
2018-08-25T15:06:57.977Z,49.03
2018-08-25T15:09:24.337Z,49.02
2018-08-25T15:11:50.721Z,49.07
2018-08-25T15:14:17.081Z,49.27
2018-08-25T15:16:43.395Z,49.36
2018-08-25T15:19:09.773Z,49.37
2018-08-25T15:21:36.115Z,49.18
2018-08-25T15:24:02.593Z,49.18
2018-08-25T15:26:29.086Z,49.27
2018-08-25T15:28:55.616Z,49.32
2018-08-25T15:31:21.940Z,49.20
2018-08-25T15:33:48.367Z,49.18
2018-08-25T15:36:14.708Z,49.19
2018-08-25T15:38:41.047Z,49.13
2018-08-25T15:41:07.425Z,49.04
2018-08-25T15:43:33.807Z,49.08
2018-08-25T15:46:00.175Z,49.08
2018-08-25T15:48:26.554Z,49.04
2018-08-25T15:50:52.922Z,49.14
2018-08-25T15:53:19.298Z,49.21
2018-08-25T15:55:45.663Z,49.17
2018-08-25T15:58:12.054Z,49.33
2018-08-25T16:00:38.401Z,49.31
2018-08-25T16:03:04.787Z,49.27
2018-08-25T16:05:31.119Z,49.22
2018-08-25T16:07:57.456Z,49.22
2018-08-25T16:10:23.787Z,49.31
2018-08-25T16:12:50.275Z,49.30
2018-08-25T16:15:16.680Z,49.30
2018-08-25T16:17:43.020Z,49.30
2018-08-25T16:20:09.429Z,49.21
2018-08-25T16:22:35.682Z,49.23
2018-08-25T16:25:02.049Z,49.25
2018-08-25T16:27:28.452Z,49.37
2018-08-25T16:29:54.781Z,49.35
2018-08-25T16:32:21.155Z,49.24
2018-08-25T16:34:47.546Z,49.30
2018-08-25T16:37:13.919Z,49.25
2018-08-25T16:39:40.272Z,49.40
2018-08-25T16:42:06.695Z,49.33
2018-08-25T16:44:33.037Z,49.24
2018-08-25T16:46:59.370Z,49.25
2018-08-25T16:49:25.753Z,49.21
2018-08-25T16:51:52.100Z,49.27
2018-08-25T16:54:18.459Z,49.22
2018-08-25T16:56:44.918Z,49.30
2018-08-25T16:59:11.291Z,49.37
2018-08-25T17:01:37.621Z,49.36
2018-08-25T17:04:04.000Z,49.38
2018-08-25T17:06:30.327Z,49.34
2018-08-25T17:08:56.701Z,49.33
2018-08-25T17:11:23.121Z,49.37
2018-08-25T17:13:49.504Z,49.36
2018-08-25T17:16:15.877Z,49.33
2018-08-25T17:18:42.212Z,49.34
2018-08-25T17:21:08.630Z,49.23
2018-08-25T17:23:34.911Z,49.14
2018-08-25T17:26:01.241Z,49.16
2018-08-25T17:28:27.636Z,49.13
2018-08-25T17:30:53.973Z,49.09
2018-08-25T17:33:20.353Z,49.22
2018-08-25T17:35:46.719Z,49.19
2018-08-25T17:38:13.100Z,49.13
2018-08-25T17:40:39.427Z,49.22
2018-08-25T17:43:05.801Z,49.23
2018-08-25T17:45:32.125Z,49.26
2018-08-25T17:47:58.543Z,49.21
2018-08-25T17:50:24.891Z,49.39
2018-08-25T17:52:51.293Z,49.30
2018-08-25T17:55:17.611Z,49.40
2018-08-25T17:57:44.125Z,49.48
2018-08-25T18:00:10.310Z,49.39
2018-08-25T18:02:36.648Z,49.36
2018-08-25T18:05:02.978Z,49.52
2018-08-25T18:07:29.404Z,49.47
2018-08-25T18:09:55.736Z,49.66
2018-08-25T18:12:22.057Z,49.53
2018-08-25T18:14:48.374Z,49.63
2018-08-25T18:17:14.718Z,49.62
2018-08-25T18:19:41.047Z,49.67
2018-08-25T18:22:07.408Z,49.55
2018-08-25T18:24:33.744Z,49.72
2018-08-25T18:27:00.074Z,49.70
2018-08-25T18:29:26.436Z,49.63
2018-08-25T18:31:52.836Z,49.68
2018-08-25T18:34:19.180Z,49.61
2018-08-25T18:36:45.578Z,49.54
2018-08-25T18:39:11.911Z,49.61
2018-08-25T18:41:38.365Z,49.68
2018-08-25T18:44:04.729Z,49.71
2018-08-25T18:46:31.067Z,49.70
2018-08-25T18:48:57.477Z,49.68
2018-08-25T18:51:23.847Z,49.71
2018-08-25T18:53:50.242Z,49.79
2018-08-25T18:56:16.592Z,49.92
2018-08-25T18:58:42.927Z,49.91
2018-08-25T19:01:09.278Z,50.04
2018-08-25T19:03:35.614Z,49.92
2018-08-25T19:06:01.977Z,49.94
2018-08-25T19:08:28.333Z,50.09
2018-08-25T19:10:54.822Z,50.05
2018-08-25T19:13:21.129Z,50.05
2018-08-25T19:15:47.505Z,49.94
2018-08-25T19:18:13.861Z,50.08
2018-08-25T19:20:40.251Z,50.03
2018-08-25T19:23:06.574Z,50.11
2018-08-25T19:25:32.879Z,50.24
2018-08-25T19:27:59.212Z,50.19
2018-08-25T19:30:25.589Z,50.36
2018-08-25T19:32:52.002Z,50.21
2018-08-25T19:35:18.338Z,50.22
2018-08-25T19:37:44.703Z,50.22
2018-08-25T19:40:11.039Z,50.10
2018-08-25T19:42:37.363Z,50.13
2018-08-25T19:45:03.699Z,50.05
2018-08-25T19:47:30.034Z,50.13
2018-08-25T19:49:56.358Z,50.16
2018-08-25T19:52:22.696Z,50.12
2018-08-25T19:54:49.024Z,50.21
2018-08-25T19:57:15.348Z,50.19
2018-08-25T19:59:41.680Z,50.14
2018-08-25T20:02:08.011Z,50.16
2018-08-25T20:04:34.372Z,50.12
2018-08-25T20:07:00.711Z,50.13
2018-08-25T20:09:27.087Z,50.09
2018-08-25T20:11:53.403Z,50.17
2018-08-25T20:14:19.721Z,50.22
2018-08-25T20:16:46.065Z,50.28
2018-08-25T20:19:12.394Z,50.26
2018-08-25T20:21:38.834Z,50.14
2018-08-25T20:24:05.223Z,50.09
2018-08-25T20:26:31.555Z,50.18
2018-08-25T20:28:57.895Z,50.15
2018-08-25T20:31:24.219Z,50.25
2018-08-25T20:33:50.552Z,50.19
2018-08-25T20:36:16.882Z,50.23
2018-08-25T20:38:43.228Z,50.15
2018-08-25T20:41:09.554Z,50.25
2018-08-25T20:43:35.973Z,50.20
2018-08-25T20:46:02.362Z,50.26
2018-08-25T20:48:28.705Z,50.09
2018-08-25T20:50:55.217Z,50.05
2018-08-25T20:53:21.681Z,50.04
2018-08-25T20:55:47.939Z,49.94
2018-08-25T20:58:14.325Z,50.08
2018-08-25T21:00:40.726Z,50.13
2018-08-25T21:03:07.065Z,50.25
2018-08-25T21:05:33.418Z,50.31
2018-08-25T21:07:59.777Z,50.16
2018-08-25T21:10:26.184Z,50.09
2018-08-25T21:12:52.544Z,50.14
2018-08-25T21:15:18.886Z,50.08
2018-08-25T21:17:45.218Z,50.18
2018-08-25T21:20:11.577Z,50.23
2018-08-25T21:22:37.913Z,50.21
2018-08-25T21:25:04.275Z,50.11
2018-08-25T21:27:30.607Z,50.08
2018-08-25T21:29:56.949Z,50.05
2018-08-25T21:32:23.269Z,50.09
2018-08-25T21:34:49.612Z,50.08
2018-08-25T21:37:15.940Z,50.20
2018-08-25T21:39:42.275Z,50.17
2018-08-25T21:42:08.660Z,50.15
2018-08-25T21:44:34.988Z,50.21
2018-08-25T21:47:01.327Z,50.00
2018-08-25T21:49:27.709Z,50.12
2018-08-25T21:51:54.138Z,49.99
2018-08-25T21:54:20.490Z,50.08
2018-08-25T21:56:46.813Z,50.04
2018-08-25T21:59:13.151Z,50.17
2018-08-25T22:01:39.520Z,50.28
2018-08-25T22:04:05.857Z,50.39
2018-08-25T22:06:32.245Z,50.16
2018-08-25T22:08:58.579Z,50.18
2018-08-25T22:11:24.912Z,50.06
2018-08-25T22:13:51.253Z,50.19
2018-08-25T22:16:17.585Z,50.21
2018-08-25T22:18:43.960Z,50.15
2018-08-25T22:21:10.436Z,50.08
2018-08-25T22:23:36.771Z,50.18
2018-08-25T22:26:03.096Z,50.15
2018-08-25T22:28:29.421Z,50.17
2018-08-25T22:30:55.745Z,50.15
2018-08-25T22:33:22.086Z,50.15
2018-08-25T22:35:48.417Z,50.27
2018-08-25T22:38:14.748Z,50.13
2018-08-25T22:40:41.082Z,50.20
2018-08-25T22:43:07.435Z,50.12
2018-08-25T22:45:33.783Z,49.99
2018-08-25T22:48:00.104Z,50.02
2018-08-25T22:50:26.443Z,50.08
2018-08-25T22:52:52.866Z,50.18
2018-08-25T22:55:19.298Z,49.90
2018-08-25T22:57:45.648Z,50.10
2018-08-25T23:00:11.999Z,50.00
2018-08-25T23:02:38.392Z,50.17
2018-08-25T23:05:04.908Z,49.95
2018-08-25T23:07:31.276Z,49.88
2018-08-25T23:09:57.640Z,49.94
2018-08-25T23:12:23.975Z,50.03
2018-08-25T23:14:50.346Z,50.03
2018-08-25T23:17:16.724Z,50.01
2018-08-25T23:19:43.049Z,50.02
2018-08-25T23:22:09.376Z,49.96
2018-08-25T23:24:35.723Z,49.95
2018-08-25T23:27:02.128Z,50.00
2018-08-25T23:29:28.520Z,49.96
2018-08-25T23:31:54.883Z,50.14
2018-08-25T23:34:21.308Z,50.13
2018-08-25T23:36:47.638Z,50.16
2018-08-25T23:39:14.017Z,50.13
2018-08-25T23:41:40.396Z,50.06
2018-08-25T23:44:06.812Z,50.13
2018-08-25T23:46:33.147Z,49.94
2018-08-25T23:48:59.512Z,50.20
2018-08-25T23:51:25.880Z,50.14
2018-08-25T23:53:52.245Z,50.10
2018-08-25T23:56:18.575Z,50.06
2018-08-25T23:58:45.007Z,50.00
